Time;durP1;ratioP1;P1;durP2;ratioP2;P2;SDS_P1;SDS_P2;PMS_P1;PMS_P2;Temp;Humidity;BMP_temperature;BMP_pressure;BME280_temperature;BME280_humidity;BME280_pressure;Samples;Min_cycle;Max_cycle;Signal;HPM_P1;HPM_P2
2021/03/18 00:02:07;;;;;;;17.97;8.30;;;;;;;;;;777204;178;920490;-64
2021/03/18 00:04:33;;;;;;;18.23;10.83;;;;;;;;;;778900;178;919472;-64
2021/03/18 00:07:05;;;;;;;21.83;11.40;;;;;;;;;;781404;179;919133;-64
2021/03/18 00:09:31;;;;;;;20.27;11.37;;;;;;;;;;776434;179;920280;-65
2021/03/18 00:11:57;;;;;;;22.40;12.17;;;;;;;;;;778679;179;919846;-63
2021/03/18 00:14:22;;;;;;;18.00;9.37;;;;;;;;;;773861;179;920312;-65
2021/03/18 00:16:48;;;;;;;23.97;12.40;;;;;;;;;;782753;179;918472;-65
2021/03/18 00:19:14;;;;;;;20.20;10.95;;;;;;;;;;773568;179;1021761;-65
2021/03/18 00:21:40;;;;;;;27.53;12.07;;;;;;;;;;777226;179;1009101;-66
2021/03/18 00:24:07;;;;;;;23.85;11.43;;;;;;;;;;780334;179;913607;-63
2021/03/18 00:26:33;;;;;;;21.67;10.90;;;;;;;;;;777921;176;943336;-65
2021/03/18 00:28:59;;;;;;;22.03;12.00;;;;;;;;;;769525;179;1775284;-66
2021/03/18 00:31:25;;;;;;;27.87;12.23;;;;;;;;;;773504;179;919962;-66
2021/03/18 00:33:51;;;;;;;19.80;11.17;;;;;;;;;;779831;179;919231;-65
2021/03/18 00:36:17;;;;;;;20.00;10.93;;;;;;;;;;780610;179;918398;-65
2021/03/18 00:38:42;;;;;;;21.57;10.70;;;;;;;;;;776148;179;918994;-65
2021/03/18 00:41:08;;;;;;;23.50;11.87;;;;;;;;;;782649;179;919396;-65
2021/03/18 00:43:34;;;;;;;18.17;10.67;;;;;;;;;;776176;179;919551;-65
2021/03/18 00:46:00;;;;;;;20.03;11.10;;;;;;;;;;776153;179;919642;-66
2021/03/18 00:48:26;;;;;;;20.30;11.07;;;;;;;;;;782183;179;919656;-66
2021/03/18 00:50:52;;;;;;;19.03;8.27;;;;;;;;;;775939;179;919481;-65
2021/03/18 00:53:19;;;;;;;17.58;9.68;;;;;;;;;;777490;179;920439;-66
2021/03/18 00:55:45;;;;;;;17.23;8.83;;;;;;;;;;771181;179;1119855;-66
2021/03/18 00:58:11;;;;;;;8.63;5.57;;;;;;;;;;781876;179;919759;-65
2021/03/18 01:00:38;;;;;;;16.27;8.60;;;;;;;;;;775731;179;919331;-66
2021/03/18 01:03:04;;;;;;;12.93;8.87;;;;;;;;;;778743;178;1019440;-65
2021/03/18 01:05:30;;;;;;;18.00;10.37;;;;;;;;;;781035;178;918710;-66
2021/03/18 01:07:56;;;;;;;18.17;9.90;;;;;;;;;;779486;178;917351;-66
2021/03/18 01:10:22;;;;;;;13.80;7.93;;;;;;;;;;775818;178;918853;-65
2021/03/18 01:12:48;;;;;;;13.10;7.97;;;;;;;;;;783716;178;919140;-65
2021/03/18 01:15:14;;;;;;;11.83;7.13;;;;;;;;;;775387;178;1555059;-65
2021/03/18 01:17:41;;;;;;;15.17;8.67;;;;;;;;;;779785;178;922012;-65
2021/03/18 01:20:08;;;;;;;14.30;7.70;;;;;;;;;;774636;178;918862;-65
2021/03/18 01:22:34;;;;;;;13.80;8.03;;;;;;;;;;784150;179;920123;-67
2021/03/18 01:25:01;;;;;;;10.80;6.40;;;;;;;;;;777345;179;919203;-65
2021/03/18 01:27:27;;;;;;;16.50;8.60;;;;;;;;;;779845;179;918969;-65
2021/03/18 01:29:53;;;;;;;11.13;6.93;;;;;;;;;;782892;179;919406;-65
2021/03/18 01:32:19;;;;;;;16.50;9.30;;;;;;;;;;765897;179;919161;-64
2021/03/18 01:34:44;;;;;;;11.70;7.20;;;;;;;;;;778287;179;1042360;-65
2021/03/18 01:37:10;;;;;;;15.10;8.70;;;;;;;;;;777002;179;1283353;-65
2021/03/18 01:39:36;;;;;;;12.87;8.57;;;;;;;;;;774668;179;918820;-66
2021/03/18 01:42:02;;;;;;;14.50;7.33;;;;;;;;;;775534;179;919268;-65
2021/03/18 01:44:28;;;;;;;11.65;6.55;;;;;;;;;;776975;179;919279;-65
2021/03/18 01:46:54;;;;;;;13.33;8.53;;;;;;;;;;779957;179;919512;-66
2021/03/18 01:49:20;;;;;;;11.33;6.93;;;;;;;;;;774948;179;919880;-64
2021/03/18 01:51:45;;;;;;;19.95;8.25;;;;;;;;;;773670;179;1087099;-65
2021/03/18 01:54:11;;;;;;;15.03;8.10;;;;;;;;;;782158;179;919697;-65
2021/03/18 01:56:37;;;;;;;14.00;7.93;;;;;;;;;;781058;179;918858;-66
2021/03/18 01:59:03;;;;;;;15.93;8.27;;;;;;;;;;754193;183;919942;-65
2021/03/18 02:01:30;;;;;;;17.33;7.62;;;;;;;;;;744964;189;918804;-68
2021/03/18 02:03:56;;;;;;;19.00;8.20;;;;;;;;;;754238;184;919108;-65
2021/03/18 02:06:21;;;;;;;18.33;9.50;;;;;;;;;;777825;179;919670;-65
2021/03/18 02:08:47;;;;;;;12.37;8.30;;;;;;;;;;774062;179;919278;-64
2021/03/18 02:11:13;;;;;;;12.20;7.67;;;;;;;;;;776205;179;918750;-63
2021/03/18 02:13:39;;;;;;;14.40;7.03;;;;;;;;;;778461;178;918602;-66
2021/03/18 02:16:05;;;;;;;19.63;9.07;;;;;;;;;;778492;178;919986;-65
2021/03/18 02:18:40;;;;;;;15.93;9.03;;;;;;;;;;782219;178;919276;-65
2021/03/18 02:21:11;;;;;;;20.20;9.87;;;;;;;;;;778662;178;920158;-66
2021/03/18 02:23:57;;;;;;;11.68;8.10;;;;;;;;;;773593;178;918948;-66
2021/03/18 02:26:39;;;;;;;14.20;7.90;;;;;;;;;;777285;178;927455;-65
2021/03/18 02:29:05;;;;;;;12.03;8.27;;;;;;;;;;774872;179;919090;-66
2021/03/18 02:31:31;;;;;;;16.33;8.27;;;;;;;;;;776918;178;919276;-66
2021/03/18 02:34:01;;;;;;;13.33;7.93;;;;;;;;;;780017;179;920088;-66
2021/03/18 02:36:27;;;;;;;12.70;7.73;;;;;;;;;;776770;179;921883;-66
2021/03/18 02:38:52;;;;;;;13.00;6.63;;;;;;;;;;777509;179;919247;-64
2021/03/18 02:41:18;;;;;;;12.23;6.00;;;;;;;;;;778033;179;919420;-66
2021/03/18 02:43:45;;;;;;;14.27;7.93;;;;;;;;;;778149;179;946621;-66
2021/03/18 02:46:11;;;;;;;14.63;7.60;;;;;;;;;;779076;179;919561;-67
2021/03/18 02:48:36;;;;;;;23.33;8.90;;;;;;;;;;773661;179;1016668;-65
2021/03/18 02:51:02;;;;;;;15.27;7.90;;;;;;;;;;782415;179;914404;-66
2021/03/18 02:53:30;;;;;;;20.53;8.93;;;;;;;;;;774536;179;947012;-66
2021/03/18 02:55:55;;;;;;;16.53;8.20;;;;;;;;;;776473;179;919385;-66
2021/03/18 02:58:21;;;;;;;11.33;7.77;;;;;;;;;;782272;179;919216;-66
2021/03/18 03:00:48;;;;;;;14.80;8.20;;;;;;;;;;776312;179;911915;-66
2021/03/18 03:03:14;;;;;;;18.92;10.90;;;;;;;;;;779607;179;918655;-66
2021/03/18 03:05:40;;;;;;;12.90;8.47;;;;;;;;;;775022;179;919284;-66
2021/03/18 03:08:06;;;;;;;10.70;7.60;;;;;;;;;;780555;175;917306;-69
2021/03/18 03:10:32;;;;;;;14.80;7.73;;;;;;;;;;775277;179;918902;-66
2021/03/18 03:12:57;;;;;;;14.85;8.55;;;;;;;;;;777636;179;928301;-66
2021/03/18 03:15:23;;;;;;;16.07;7.77;;;;;;;;;;781612;179;918126;-65
2021/03/18 03:17:49;;;;;;;16.05;8.35;;;;;;;;;;777287;179;930939;-66
2021/03/18 03:20:15;;;;;;;13.33;8.73;;;;;;;;;;774641;179;918356;-66
2021/03/18 03:22:41;;;;;;;14.17;7.47;;;;;;;;;;781954;179;920032;-63
2021/03/18 03:25:07;;;;;;;15.73;8.00;;;;;;;;;;770694;178;1762362;-65
2021/03/18 03:27:33;;;;;;;21.30;9.55;;;;;;;;;;781197;178;919568;-64
2021/03/18 03:29:59;;;;;;;14.70;9.40;;;;;;;;;;779820;178;919727;-66
2021/03/18 03:32:25;;;;;;;17.10;9.00;;;;;;;;;;775918;178;919016;-65
2021/03/18 03:34:50;;;;;;;15.30;9.60;;;;;;;;;;776143;178;982560;-65
2021/03/18 03:37:16;;;;;;;12.13;8.53;;;;;;;;;;775523;178;919237;-64
2021/03/18 03:39:42;;;;;;;11.63;8.80;;;;;;;;;;782576;178;919812;-64
2021/03/18 03:42:08;;;;;;;16.00;7.67;;;;;;;;;;774468;178;919196;-65
2021/03/18 03:44:34;;;;;;;12.60;7.13;;;;;;;;;;778116;179;919692;-65
2021/03/18 03:47:00;;;;;;;14.03;7.00;;;;;;;;;;781294;179;917529;-65
2021/03/18 03:49:26;;;;;;;16.67;8.97;;;;;;;;;;776629;179;920436;-65
2021/03/18 03:51:56;;;;;;;13.63;7.40;;;;;;;;;;773352;179;921722;-65
2021/03/18 03:54:22;;;;;;;13.85;8.55;;;;;;;;;;778270;179;946666;-64
2021/03/18 03:56:50;;;;;;;18.90;8.30;;;;;;;;;;779640;175;919579;-65
2021/03/18 03:59:16;;;;;;;12.33;7.30;;;;;;;;;;777046;179;919065;-66
2021/03/18 04:01:45;;;;;;;10.20;6.20;;;;;;;;;;775378;179;920317;-65
2021/03/18 04:04:12;;;;;;;12.33;8.57;;;;;;;;;;782369;179;919774;-65
2021/03/18 04:06:38;;;;;;;12.40;6.30;;;;;;;;;;772933;179;920509;-63
2021/03/18 04:09:04;;;;;;;10.77;7.00;;;;;;;;;;777202;179;919276;-65
2021/03/18 04:11:30;;;;;;;10.37;6.57;;;;;;;;;;772414;179;2145415;-64
2021/03/18 04:13:56;;;;;;;11.60;5.47;;;;;;;;;;781049;179;921850;-65
2021/03/18 04:16:22;;;;;;;14.27;6.60;;;;;;;;;;779022;179;919544;-65
2021/03/18 04:18:48;;;;;;;12.77;6.60;;;;;;;;;;775921;179;922122;-65
2021/03/18 04:21:14;;;;;;;12.60;7.03;;;;;;;;;;782607;179;919050;-65
2021/03/18 04:23:40;;;;;;;10.87;6.83;;;;;;;;;;775983;179;984113;-63
2021/03/18 04:26:05;;;;;;;14.30;7.57;;;;;;;;;;777657;179;944473;-65
2021/03/18 04:28:31;;;;;;;12.70;9.07;;;;;;;;;;780892;179;918563;-65
2021/03/18 04:30:57;;;;;;;15.63;6.60;;;;;;;;;;777051;179;936623;-65
2021/03/18 04:33:23;;;;;;;21.97;10.27;;;;;;;;;;774141;179;919092;-64
2021/03/18 04:35:49;;;;;;;15.33;11.23;;;;;;;;;;778760;179;920525;-65
2021/03/18 04:38:15;;;;;;;13.65;7.45;;;;;;;;;;782970;178;920222;-64
2021/03/18 04:40:41;;;;;;;23.35;7.85;;;;;;;;;;781407;178;920136;-65
2021/03/18 04:43:06;;;;;;;25.10;13.70;;;;;;;;;;780754;178;916307;-65
2021/03/18 04:45:32;;;;;;;59.17;35.03;;;;;;;;;;779196;178;919156;-63
2021/03/18 04:47:58;;;;;;;18.60;14.30;;;;;;;;;;776383;178;1044352;-68
2021/03/18 04:50:24;;;;;;;44.10;22.43;;;;;;;;;;779677;178;919050;-63
2021/03/18 04:52:50;;;;;;;40.23;23.97;;;;;;;;;;781939;178;919973;-64
2021/03/18 04:55:16;;;;;;;18.90;9.37;;;;;;;;;;773456;178;920102;-65
2021/03/18 04:57:42;;;;;;;13.03;9.17;;;;;;;;;;776866;179;919576;-64
2021/03/18 05:00:09;;;;;;;29.30;13.70;;;;;;;;;;781322;179;919710;-64
2021/03/18 05:02:35;;;;;;;20.33;10.07;;;;;;;;;;781240;179;919157;-65
2021/03/18 05:05:00;;;;;;;18.53;7.93;;;;;;;;;;775116;179;919448;-65
2021/03/18 05:07:26;;;;;;;20.00;7.90;;;;;;;;;;781567;179;919405;-65
2021/03/18 05:09:52;;;;;;;40.30;20.60;;;;;;;;;;779950;179;918007;-65
2021/03/18 05:12:18;;;;;;;19.57;9.60;;;;;;;;;;781658;179;918791;-66
2021/03/18 05:14:44;;;;;;;18.10;10.53;;;;;;;;;;746880;179;5399940;-65
2021/03/18 05:17:11;;;;;;;41.07;19.40;;;;;;;;;;775587;179;918563;-65
2021/03/18 05:19:37;;;;;;;22.50;10.43;;;;;;;;;;767403;182;918982;-64
2021/03/18 05:22:03;;;;;;;62.83;26.23;;;;;;;;;;777546;179;918575;-67
2021/03/18 05:24:28;;;;;;;17.07;10.80;;;;;;;;;;778491;179;918822;-65
2021/03/18 05:26:54;;;;;;;19.93;10.67;;;;;;;;;;778778;179;919019;-64
2021/03/18 05:29:20;;;;;;;20.80;9.33;;;;;;;;;;778998;179;918380;-65
2021/03/18 05:31:46;;;;;;;13.23;7.30;;;;;;;;;;768248;179;919026;-65
2021/03/18 05:34:12;;;;;;;14.20;8.23;;;;;;;;;;777610;179;918243;-66
2021/03/18 05:36:38;;;;;;;13.10;8.00;;;;;;;;;;775455;179;918510;-66
2021/03/18 05:39:04;;;;;;;15.10;8.00;;;;;;;;;;782809;179;918900;-65
2021/03/18 05:41:29;;;;;;;11.67;7.03;;;;;;;;;;777482;179;915469;-66
2021/03/18 05:43:55;;;;;;;13.20;9.03;;;;;;;;;;777858;179;919272;-66
2021/03/18 05:46:21;;;;;;;14.10;8.07;;;;;;;;;;774376;179;918099;-67
2021/03/18 05:48:47;;;;;;;15.30;8.77;;;;;;;;;;783997;178;918922;-66
2021/03/18 05:51:13;;;;;;;12.50;8.50;;;;;;;;;;778493;178;918160;-66
2021/03/18 05:53:39;;;;;;;12.33;8.00;;;;;;;;;;780066;178;919324;-68
2021/03/18 05:56:05;;;;;;;16.47;8.70;;;;;;;;;;780639;178;918961;-67
2021/03/18 05:58:31;;;;;;;12.57;7.63;;;;;;;;;;776746;178;1021173;-67
2021/03/18 06:00:57;;;;;;;10.70;7.27;;;;;;;;;;774491;178;918807;-67
2021/03/18 06:03:22;;;;;;;21.70;10.33;;;;;;;;;;782756;178;975259;-66
2021/03/18 06:05:55;;;;;;;17.05;8.77;;;;;;;;;;778774;178;918898;-67
2021/03/18 06:08:21;;;;;;;18.00;8.57;;;;;;;;;;779276;179;918768;-67
2021/03/18 06:10:47;;;;;;;12.03;8.07;;;;;;;;;;778114;179;1021728;-67
2021/03/18 06:13:13;;;;;;;13.83;8.23;;;;;;;;;;781672;179;917168;-67
2021/03/18 06:15:39;;;;;;;13.93;8.90;;;;;;;;;;779842;179;920008;-66
2021/03/18 06:18:05;;;;;;;16.07;8.73;;;;;;;;;;776286;179;919045;-66
2021/03/18 06:20:31;;;;;;;12.57;8.90;;;;;;;;;;786344;179;625146;-66
2021/03/18 06:22:59;;;;;;;21.30;12.07;;;;;;;;;;773544;179;1067067;-66
2021/03/18 06:25:23;;;;;;;19.90;13.40;;;;;;;;;;776454;179;919069;-66
2021/03/18 06:27:49;;;;;;;16.98;12.35;;;;;;;;;;776379;179;918956;-67
2021/03/18 06:30:16;;;;;;;18.50;11.10;;;;;;;;;;768597;182;915524;-67
2021/03/18 06:32:41;;;;;;;14.93;8.90;;;;;;;;;;775889;179;916861;-66
2021/03/18 06:35:08;;;;;;;16.62;8.40;;;;;;;;;;777555;179;913272;-66
2021/03/18 06:37:34;;;;;;;21.40;12.23;;;;;;;;;;778910;179;919380;-66
2021/03/18 06:40:00;;;;;;;14.77;7.43;;;;;;;;;;778228;179;920100;-68
2021/03/18 06:42:26;;;;;;;17.57;11.70;;;;;;;;;;773380;179;1031984;-68
2021/03/18 06:44:58;;;;;;;15.02;10.00;;;;;;;;;;783319;179;918905;-67
2021/03/18 06:47:30;;;;;;;20.63;10.63;;;;;;;;;;776300;179;919409;-69
2021/03/18 06:50:01;;;;;;;24.63;12.57;;;;;;;;;;777450;179;881460;-69
2021/03/18 06:52:27;;;;;;;14.20;8.30;;;;;;;;;;779783;179;915951;-70
2021/03/18 06:54:52;;;;;;;20.67;12.23;;;;;;;;;;778387;179;915903;-69
2021/03/18 06:57:18;;;;;;;19.80;12.10;;;;;;;;;;778442;179;923193;-70
2021/03/18 06:59:44;;;;;;;30.83;14.45;;;;;;;;;;777119;178;917717;-69
2021/03/18 07:02:13;;;;;;;23.07;13.17;;;;;;;;;;780815;178;922520;-68
2021/03/18 07:04:39;;;;;;;22.70;12.37;;;;;;;;;;776022;178;966637;-68
2021/03/18 07:07:04;;;;;;;17.23;11.37;;;;;;;;;;774492;178;973138;-66
2021/03/18 07:09:30;;;;;;;27.43;14.70;;;;;;;;;;776438;178;919054;-69
2021/03/18 07:11:58;;;;;;;23.13;11.93;;;;;;;;;;784439;178;915704;-66
2021/03/18 07:14:39;;;;;;;44.57;20.30;;;;;;;;;;773779;178;920578;-66
2021/03/18 07:17:05;;;;;;;29.37;17.37;;;;;;;;;;779018;179;917946;-67
2021/03/18 07:19:30;;;;;;;20.90;11.57;;;;;;;;;;776425;179;920368;-66
2021/03/18 07:21:56;;;;;;;44.58;24.63;;;;;;;;;;783465;179;920792;-67
2021/03/18 07:24:33;;;;;;;26.93;14.07;;;;;;;;;;776848;179;919011;-66
2021/03/18 07:26:59;;;;;;;37.50;18.70;;;;;;;;;;776863;179;919193;-67
2021/03/18 07:29:25;;;;;;;23.77;13.80;;;;;;;;;;769825;179;998502;-65
2021/03/18 07:31:51;;;;;;;56.67;25.07;;;;;;;;;;783848;179;920644;-66
2021/03/18 07:34:17;;;;;;;43.50;21.47;;;;;;;;;;774965;179;921165;-70
2021/03/18 07:36:43;;;;;;;33.03;19.73;;;;;;;;;;776641;179;920682;-65
2021/03/18 07:39:09;;;;;;;29.07;16.10;;;;;;;;;;778343;179;911346;-66
2021/03/18 07:41:35;;;;;;;35.90;18.80;;;;;;;;;;775747;175;912579;-65
2021/03/18 07:44:01;;;;;;;34.63;19.50;;;;;;;;;;775398;179;919188;-65
2021/03/18 07:46:26;;;;;;;32.23;19.83;;;;;;;;;;773335;179;919399;-65
2021/03/18 07:48:52;;;;;;;27.00;15.33;;;;;;;;;;779929;179;1018874;-66
2021/03/18 07:51:18;;;;;;;37.13;18.50;;;;;;;;;;775107;179;918286;-65
2021/03/18 07:53:45;;;;;;;26.27;15.50;;;;;;;;;;776756;179;918471;-66
2021/03/18 07:56:12;;;;;;;20.70;10.47;;;;;;;;;;779570;179;918807;-64
2021/03/18 07:58:39;;;;;;;32.40;17.17;;;;;;;;;;776338;179;917691;-64
2021/03/18 08:01:05;;;;;;;22.37;12.90;;;;;;;;;;774594;179;921411;-65
2021/03/18 08:03:31;;;;;;;15.83;11.57;;;;;;;;;;776140;179;919270;-64
2021/03/18 08:05:57;;;;;;;22.93;15.77;;;;;;;;;;781569;179;918668;-65
2021/03/18 08:08:39;;;;;;;31.60;17.25;;;;;;;;;;776751;179;919279;-65
2021/03/18 08:11:04;;;;;;;24.37;13.10;;;;;;;;;;769065;178;2364809;-64
2021/03/18 08:13:31;;;;;;;12.07;9.10;;;;;;;;;;781297;178;919107;-64
2021/03/18 08:15:57;;;;;;;25.87;15.10;;;;;;;;;;781746;178;920653;-66
2021/03/18 08:18:31;;;;;;;21.00;11.07;;;;;;;;;;778654;178;919212;-65
2021/03/18 08:20:58;;;;;;;30.90;18.30;;;;;;;;;;778772;178;933283;-66
2021/03/18 08:23:38;;;;;;;23.05;14.73;;;;;;;;;;775716;178;1020448;-64
2021/03/18 08:26:04;;;;;;;28.20;12.73;;;;;;;;;;779549;178;920161;-64
2021/03/18 08:28:36;;;;;;;31.20;12.18;;;;;;;;;;779634;175;920154;-64
2021/03/18 08:31:01;;;;;;;25.60;14.80;;;;;;;;;;776518;179;916737;-65
2021/03/18 08:33:33;;;;;;;20.03;13.60;;;;;;;;;;769004;179;1836806;-66
2021/03/18 08:36:05;;;;;;;17.43;10.60;;;;;;;;;;778833;179;918795;-65
2021/03/18 08:38:31;;;;;;;20.67;10.30;;;;;;;;;;768682;182;918685;-65
2021/03/18 08:40:58;;;;;;;30.83;15.10;;;;;;;;;;777679;179;919168;-65
2021/03/18 08:43:23;;;;;;;21.50;9.17;;;;;;;;;;776545;179;920464;-65
2021/03/18 08:45:49;;;;;;;37.47;15.47;;;;;;;;;;781051;179;919469;-67
2021/03/18 08:48:15;;;;;;;28.07;15.30;;;;;;;;;;772010;179;919698;-65
2021/03/18 08:50:48;;;;;;;24.40;12.97;;;;;;;;;;776208;179;1021655;-66
2021/03/18 08:53:27;;;;;;;17.25;11.70;;;;;;;;;;769648;179;1031234;-65
2021/03/18 08:55:53;;;;;;;23.60;13.53;;;;;;;;;;778359;179;919286;-66
2021/03/18 08:58:19;;;;;;;20.20;12.63;;;;;;;;;;780630;179;917879;-66
2021/03/18 09:00:45;;;;;;;17.27;9.87;;;;;;;;;;773057;179;953872;-66
2021/03/18 09:03:14;;;;;;;21.92;9.50;;;;;;;;;;774360;179;919429;-66
2021/03/18 09:05:40;;;;;;;19.23;10.60;;;;;;;;;;782042;179;918520;-65
2021/03/18 09:08:06;;;;;;;19.27;10.77;;;;;;;;;;775192;179;919032;-65
2021/03/18 09:10:32;;;;;;;19.03;11.70;;;;;;;;;;778887;179;920035;-66
2021/03/18 09:12:58;;;;;;;14.80;9.70;;;;;;;;;;777814;179;919125;-64
2021/03/18 09:15:24;;;;;;;23.10;15.07;;;;;;;;;;778327;179;919089;-65
2021/03/18 09:17:50;;;;;;;22.33;14.47;;;;;;;;;;776555;179;918906;-65
2021/03/18 09:20:16;;;;;;;39.42;10.88;;;;;;;;;;773821;179;1021406;-65
2021/03/18 09:22:42;;;;;;;27.80;16.80;;;;;;;;;;785097;178;919462;-65
2021/03/18 09:25:08;;;;;;;17.10;10.93;;;;;;;;;;778746;178;919262;-63
2021/03/18 09:27:34;;;;;;;21.50;13.90;;;;;;;;;;779733;178;919174;-64
2021/03/18 09:30:00;;;;;;;21.37;12.13;;;;;;;;;;780689;178;919323;-64
2021/03/18 09:32:25;;;;;;;27.10;15.97;;;;;;;;;;777072;178;919857;-64
2021/03/18 09:34:51;;;;;;;21.50;12.57;;;;;;;;;;776317;178;986215;-66
2021/03/18 09:37:17;;;;;;;15.43;8.73;;;;;;;;;;782841;178;1021765;-65
2021/03/18 09:39:48;;;;;;;13.30;8.93;;;;;;;;;;771635;178;1749178;-64
2021/03/18 09:42:15;;;;;;;10.00;5.90;;;;;;;;;;777568;179;942101;-66
2021/03/18 09:44:39;;;;;;;14.32;5.70;;;;;;;;;;775061;179;918839;-65
2021/03/18 09:47:05;;;;;;;10.30;5.30;;;;;;;;;;783953;179;919899;-66
2021/03/18 09:49:36;;;;;;;11.68;7.57;;;;;;;;;;773701;179;919512;-63
2021/03/18 09:52:02;;;;;;;10.60;5.00;;;;;;;;;;777998;179;920026;-65
2021/03/18 09:54:28;;;;;;;8.65;5.68;;;;;;;;;;778224;179;920436;-65
2021/03/18 09:56:54;;;;;;;9.70;5.80;;;;;;;;;;779322;175;917785;-65
2021/03/18 09:59:20;;;;;;;10.40;6.37;;;;;;;;;;776140;179;919112;-65
2021/03/18 10:01:46;;;;;;;9.90;6.03;;;;;;;;;;772851;179;919554;-65
2021/03/18 10:04:13;;;;;;;11.80;7.40;;;;;;;;;;786070;179;815113;-66
2021/03/18 10:06:38;;;;;;;12.77;6.67;;;;;;;;;;774838;179;920740;-64
2021/03/18 10:09:10;;;;;;;12.90;6.00;;;;;;;;;;777294;179;920377;-66
2021/03/18 10:11:35;;;;;;;13.27;5.43;;;;;;;;;;777621;179;918048;-65
2021/03/18 10:14:01;;;;;;;10.13;4.20;;;;;;;;;;777691;179;920440;-66
2021/03/18 10:16:27;;;;;;;12.73;6.43;;;;;;;;;;776721;179;916895;-64
2021/03/18 10:18:53;;;;;;;11.68;6.72;;;;;;;;;;774455;179;919011;-66
2021/03/18 10:21:19;;;;;;;23.60;9.50;;;;;;;;;;755994;179;4673062;-66
2021/03/18 10:23:45;;;;;;;8.80;5.40;;;;;;;;;;772047;179;917578;-66
2021/03/18 10:26:10;;;;;;;19.70;9.97;;;;;;;;;;773996;179;915598;-66
2021/03/18 10:28:36;;;;;;;9.87;6.93;;;;;;;;;;784266;179;916489;-65
2021/03/18 10:31:08;;;;;;;19.30;9.57;;;;;;;;;;777650;179;942775;-66
2021/03/18 10:33:35;;;;;;;17.95;6.82;;;;;;;;;;778921;177;915754;-65
2021/03/18 10:36:00;;;;;;;18.53;10.00;;;;;;;;;;781338;178;920381;-64
2021/03/18 10:38:30;;;;;;;11.27;7.03;;;;;;;;;;768672;182;913983;-66
2021/03/18 10:40:56;;;;;;;8.20;5.87;;;;;;;;;;781110;178;919355;-67
2021/03/18 10:43:24;;;;;;;11.27;7.15;;;;;;;;;;776092;178;920219;-67
2021/03/18 10:45:49;;;;;;;11.43;8.07;;;;;;;;;;780576;179;918802;-66
2021/03/18 10:48:19;;;;;;;10.93;7.23;;;;;;;;;;775976;178;891568;-64
2021/03/18 10:50:45;;;;;;;20.13;8.30;;;;;;;;;;776095;178;913644;-65
2021/03/18 10:53:11;;;;;;;13.57;8.80;;;;;;;;;;771375;179;919736;-66
2021/03/18 10:55:38;;;;;;;16.83;8.17;;;;;;;;;;784407;179;932696;-65
2021/03/18 10:58:03;;;;;;;14.47;8.97;;;;;;;;;;775568;179;918775;-64
2021/03/18 11:00:29;;;;;;;6.60;4.60;;;;;;;;;;778731;179;919682;-64
2021/03/18 11:02:57;;;;;;;6.30;5.17;;;;;;;;;;781065;179;919739;-64
2021/03/18 11:05:28;;;;;;;10.97;5.60;;;;;;;;;;778506;179;935438;-64
2021/03/18 11:07:54;;;;;;;5.40;3.27;;;;;;;;;;768688;179;2226926;-64
2021/03/18 11:10:20;;;;;;;6.03;4.40;;;;;;;;;;775036;179;1328006;-65
2021/03/18 11:12:52;;;;;;;7.93;4.67;;;;;;;;;;765324;180;919870;-66
2021/03/18 11:15:18;;;;;;;9.63;6.70;;;;;;;;;;775454;179;917938;-66
2021/03/18 11:17:44;;;;;;;8.00;5.97;;;;;;;;;;776869;179;919027;-65
2021/03/18 11:20:12;;;;;;;13.20;6.97;;;;;;;;;;779684;179;919028;-64
2021/03/18 11:22:38;;;;;;;12.67;6.90;;;;;;;;;;774334;182;999244;-64
2021/03/18 11:25:04;;;;;;;7.82;4.55;;;;;;;;;;774656;179;919020;-65
2021/03/18 11:27:30;;;;;;;9.15;4.65;;;;;;;;;;776426;179;936951;-64
2021/03/18 11:29:56;;;;;;;5.97;4.07;;;;;;;;;;777577;179;1168422;-64
2021/03/18 11:32:23;;;;;;;5.50;3.03;;;;;;;;;;778438;179;915488;-64
2021/03/18 11:34:47;;;;;;;13.62;5.65;;;;;;;;;;771760;179;1413934;-65
2021/03/18 11:37:13;;;;;;;10.77;4.63;;;;;;;;;;780115;179;915305;-64
2021/03/18 11:39:39;;;;;;;7.90;4.77;;;;;;;;;;774378;179;919834;-65
2021/03/18 11:42:05;;;;;;;6.23;4.40;;;;;;;;;;774753;179;919926;-65
2021/03/18 11:44:31;;;;;;;8.70;5.43;;;;;;;;;;778806;179;921811;-65
2021/03/18 11:46:59;;;;;;;5.23;4.40;;;;;;;;;;781178;177;920695;-65
2021/03/18 11:49:26;;;;;;;7.90;4.40;;;;;;;;;;777790;178;1020599;-64
2021/03/18 11:51:52;;;;;;;5.40;4.00;;;;;;;;;;772270;179;918686;-64
2021/03/18 11:54:23;;;;;;;8.23;5.75;;;;;;;;;;782843;179;918527;-64
2021/03/18 11:56:51;;;;;;;8.50;4.50;;;;;;;;;;777883;178;919716;-65
2021/03/18 11:59:16;;;;;;;11.30;6.30;;;;;;;;;;778578;178;919418;-64
2021/03/18 12:01:43;;;;;;;8.20;4.57;;;;;;;;;;777060;178;978900;-63
2021/03/18 12:04:09;;;;;;;6.47;3.90;;;;;;;;;;776070;180;919466;-64
2021/03/18 12:06:34;;;;;;;11.67;5.87;;;;;;;;;;776333;179;919713;-64
2021/03/18 12:09:00;;;;;;;7.27;5.00;;;;;;;;;;777787;179;1021476;-63
2021/03/18 12:11:26;;;;;;;8.40;4.40;;;;;;;;;;782911;179;919931;-64
2021/03/18 12:13:52;;;;;;;8.50;4.37;;;;;;;;;;778115;179;1296455;-63
2021/03/18 12:16:18;;;;;;;10.73;4.83;;;;;;;;;;773137;179;918534;-63
2021/03/18 12:18:44;;;;;;;6.40;4.40;;;;;;;;;;782901;179;915653;-65
2021/03/18 12:21:09;;;;;;;14.93;4.07;;;;;;;;;;772827;179;916373;-63
2021/03/18 12:23:35;;;;;;;6.40;3.90;;;;;;;;;;776672;179;914870;-64
2021/03/18 12:26:01;;;;;;;5.20;3.83;;;;;;;;;;778659;179;922306;-64
2021/03/18 12:28:27;;;;;;;7.47;4.17;;;;;;;;;;778918;179;928472;-63
2021/03/18 12:30:53;;;;;;;6.90;3.17;;;;;;;;;;775581;179;919237;-64
2021/03/18 12:33:19;;;;;;;5.70;4.03;;;;;;;;;;777643;179;919686;-63
2021/03/18 12:35:45;;;;;;;4.33;3.17;;;;;;;;;;781482;176;918651;-63
2021/03/18 12:38:10;;;;;;;6.63;3.30;;;;;;;;;;771440;179;1203144;-69
2021/03/18 12:40:36;;;;;;;5.93;3.67;;;;;;;;;;774215;179;919388;-65
2021/03/18 12:43:02;;;;;;;8.73;5.67;;;;;;;;;;780329;179;918944;-65
2021/03/18 12:45:31;;;;;;;3.40;1.90;;;;;;;;;;777943;179;919950;-64
2021/03/18 12:47:54;;;;;;;13.73;6.53;;;;;;;;;;774357;179;919044;-64
2021/03/18 12:50:20;;;;;;;13.15;4.87;;;;;;;;;;780291;179;1378731;-65
2021/03/18 12:52:45;;;;;;;18.10;11.10;;;;;;;;;;776331;179;920019;-65
2021/03/18 12:55:12;;;;;;;12.70;6.67;;;;;;;;;;777882;179;926480;-66
2021/03/18 12:57:40;;;;;;;19.53;11.23;;;;;;;;;;781779;177;919042;-65
2021/03/18 13:00:04;;;;;;;10.87;6.10;;;;;;;;;;772882;181;918617;-66
2021/03/18 13:02:30;;;;;;;7.90;6.20;;;;;;;;;;777155;179;919001;-66
2021/03/18 13:04:56;;;;;;;12.63;5.70;;;;;;;;;;776092;178;919221;-65
2021/03/18 13:07:22;;;;;;;7.70;4.70;;;;;;;;;;779985;178;918634;-64
2021/03/18 13:09:48;;;;;;;7.33;5.53;;;;;;;;;;773718;178;933241;-66
2021/03/18 13:12:14;;;;;;;6.67;3.93;;;;;;;;;;777845;178;919415;-67
2021/03/18 13:14:39;;;;;;;4.77;3.10;;;;;;;;;;780058;178;919361;-66
2021/03/18 13:17:05;;;;;;;5.60;3.63;;;;;;;;;;778308;179;919532;-65
2021/03/18 13:19:32;;;;;;;10.50;3.40;;;;;;;;;;767192;179;2615913;-64
2021/03/18 13:21:58;;;;;;;8.13;5.60;;;;;;;;;;782411;179;949830;-65
2021/03/18 13:24:24;;;;;;;8.30;4.87;;;;;;;;;;775963;179;932516;-65
2021/03/18 13:26:50;;;;;;;9.60;4.53;;;;;;;;;;777855;179;918645;-63
2021/03/18 13:29:15;;;;;;;4.03;2.17;;;;;;;;;;778233;179;919156;-64
2021/03/18 13:31:41;;;;;;;7.00;4.43;;;;;;;;;;775624;179;1023180;-65
2021/03/18 13:34:07;;;;;;;4.80;2.47;;;;;;;;;;777582;179;921093;-64
2021/03/18 13:36:33;;;;;;;8.73;6.20;;;;;;;;;;776835;179;918703;-64
2021/03/18 13:38:59;;;;;;;6.13;3.73;;;;;;;;;;780316;179;927691;-64
2021/03/18 13:41:25;;;;;;;10.37;6.23;;;;;;;;;;777219;179;919520;-65
2021/03/18 13:43:51;;;;;;;10.85;6.37;;;;;;;;;;775712;179;918830;-64
2021/03/18 13:46:16;;;;;;;13.37;10.00;;;;;;;;;;782670;179;919318;-65
2021/03/18 13:48:45;;;;;;;10.17;4.50;;;;;;;;;;777145;179;919502;-66
2021/03/18 13:51:11;;;;;;;9.63;3.90;;;;;;;;;;776361;179;918544;-64
2021/03/18 13:53:37;;;;;;;6.90;4.27;;;;;;;;;;776518;179;919412;-64
2021/03/18 13:56:03;;;;;;;7.73;4.53;;;;;;;;;;777786;175;935154;-66
2021/03/18 13:58:28;;;;;;;11.70;6.13;;;;;;;;;;774668;179;921097;-64
2021/03/18 14:00:54;;;;;;;7.83;6.90;;;;;;;;;;774799;179;920507;-64
2021/03/18 14:03:20;;;;;;;8.17;5.77;;;;;;;;;;779998;179;1444370;-65
2021/03/18 14:05:46;;;;;;;5.00;3.10;;;;;;;;;;771287;179;918309;-64
2021/03/18 14:08:12;;;;;;;7.73;6.93;;;;;;;;;;778780;177;921401;-64
2021/03/18 14:10:38;;;;;;;3.37;2.80;;;;;;;;;;782822;178;913761;-65